createdAt,value
2022-11-24T00:00:52.442Z,22.33
2022-11-24T00:03:19.196Z,22.16
2022-11-24T00:05:45.883Z,21.99
2022-11-24T00:08:12.478Z,21.88
2022-11-24T00:10:39.053Z,21.74
2022-11-24T00:13:05.641Z,21.64
2022-11-24T00:15:32.213Z,21.52
2022-11-24T00:17:58.775Z,21.42
2022-11-24T00:20:25.362Z,21.33
2022-11-24T00:22:51.917Z,21.26
2022-11-24T00:25:18.483Z,21.19
2022-11-24T00:27:45.193Z,21.13
2022-11-24T00:30:12.160Z,21.10
2022-11-24T00:32:38.721Z,21.06
2022-11-24T00:35:06.557Z,21.04
2022-11-24T00:37:33.540Z,21.00
2022-11-24T00:40:00.140Z,20.93
2022-11-24T00:42:26.715Z,20.91
2022-11-24T00:44:53.279Z,20.88
2022-11-24T00:47:19.884Z,20.85
2022-11-24T00:49:46.530Z,20.87
2022-11-24T00:52:13.172Z,20.86
2022-11-24T00:54:39.748Z,20.81
2022-11-24T00:57:06.334Z,20.83
2022-11-24T00:59:33.007Z,20.75
2022-11-24T01:01:59.585Z,20.74
2022-11-24T01:04:26.194Z,20.72
2022-11-24T01:06:52.753Z,20.70
2022-11-24T01:09:19.307Z,20.73
2022-11-24T01:12:04.359Z,20.68
2022-11-24T01:14:33.107Z,20.63
2022-11-24T01:17:00.087Z,20.63
2022-11-24T01:19:26.934Z,20.62
2022-11-24T01:21:53.621Z,20.56
2022-11-24T01:24:20.190Z,20.57
2022-11-24T01:26:46.764Z,20.56
2022-11-24T01:29:13.828Z,20.54
2022-11-24T01:31:40.517Z,20.55
2022-11-24T01:34:07.451Z,20.54
2022-11-24T01:36:34.208Z,20.48
2022-11-24T01:39:00.858Z,20.46
2022-11-24T01:41:27.660Z,20.44
2022-11-24T01:43:55.534Z,20.39
2022-11-24T01:46:38.986Z,20.44
2022-11-24T01:49:21.881Z,20.41
2022-11-24T01:51:55.105Z,20.36
2022-11-24T01:54:31.479Z,20.36
2022-11-24T01:57:10.018Z,20.38
2022-11-24T01:59:36.905Z,20.35
2022-11-24T02:02:03.940Z,20.39
2022-11-24T02:04:34.203Z,20.35
2022-11-24T02:07:03.400Z,20.33
2022-11-24T02:09:43.450Z,20.35
2022-11-24T02:12:10.690Z,20.36
2022-11-24T02:14:39.652Z,20.33
2022-11-24T02:17:06.332Z,20.34
2022-11-24T02:19:37.639Z,20.38
2022-11-24T02:22:04.680Z,20.36
2022-11-24T02:24:52.091Z,20.38
2022-11-24T02:27:20.059Z,20.31
2022-11-24T02:29:46.781Z,20.28
2022-11-24T02:32:14.140Z,20.30
2022-11-24T02:34:40.759Z,20.31
2022-11-24T02:37:07.536Z,20.35
2022-11-24T02:39:34.312Z,20.30
2022-11-24T02:42:05.787Z,20.32
2022-11-24T02:44:41.049Z,20.33
2022-11-24T02:47:10.552Z,20.25
2022-11-24T02:49:37.843Z,20.26
2022-11-24T02:52:05.513Z,20.27
2022-11-24T02:54:32.926Z,20.23
2022-11-24T02:57:00.195Z,20.25
2022-11-24T02:59:26.907Z,20.19
2022-11-24T03:01:53.566Z,20.23
2022-11-24T03:04:21.404Z,20.27
2022-11-24T03:06:48.039Z,20.24
2022-11-24T03:09:14.787Z,20.24
2022-11-24T03:11:41.441Z,20.26
2022-11-24T03:14:08.396Z,20.26
2022-11-24T03:16:35.101Z,20.25
2022-11-24T03:19:02.183Z,20.30
2022-11-24T03:21:28.928Z,20.28
2022-11-24T03:23:55.698Z,20.26
2022-11-24T03:26:24.076Z,20.26
2022-11-24T03:28:54.032Z,20.25
2022-11-24T03:31:20.682Z,20.21
2022-11-24T03:33:47.273Z,20.26
2022-11-24T03:36:13.960Z,20.24
2022-11-24T03:38:40.600Z,20.22
2022-11-24T03:41:07.212Z,20.23
2022-11-24T03:43:35.918Z,20.23
2022-11-24T03:46:05.989Z,20.22
2022-11-24T03:48:32.638Z,20.21
2022-11-24T03:51:01.056Z,20.22
2022-11-24T03:53:29.975Z,20.22
2022-11-24T03:55:57.036Z,20.21
2022-11-24T03:58:24.124Z,20.23
2022-11-24T04:00:52.356Z,20.22
2022-11-24T04:03:19.798Z,20.20
2022-11-24T04:05:47.128Z,20.18
2022-11-24T04:08:14.773Z,20.20
2022-11-24T04:10:41.825Z,20.19
2022-11-24T04:13:16.253Z,20.19
2022-11-24T04:15:44.212Z,20.20
2022-11-24T04:18:12.361Z,20.20
2022-11-24T04:20:39.456Z,20.21
2022-11-24T04:23:06.315Z,20.20
2022-11-24T04:25:33.390Z,20.21
2022-11-24T04:27:59.983Z,20.19
2022-11-24T04:30:28.555Z,20.21
2022-11-24T04:32:55.152Z,20.20
2022-11-24T04:35:21.737Z,20.18
2022-11-24T04:37:48.488Z,20.13
2022-11-24T04:40:15.756Z,20.16
2022-11-24T04:42:42.436Z,20.16
2022-11-24T04:45:09.376Z,20.15
2022-11-24T04:47:35.991Z,20.11
2022-11-24T04:50:02.638Z,20.10
2022-11-24T04:52:30.025Z,20.13
2022-11-24T04:54:56.597Z,20.16
2022-11-24T04:57:25.830Z,20.16
2022-11-24T04:59:53.664Z,20.14
2022-11-24T05:02:20.759Z,20.13
2022-11-24T05:04:47.440Z,20.16
2022-11-24T05:07:18.733Z,20.14
2022-11-24T05:10:05.562Z,20.15
2022-11-24T05:12:32.188Z,20.16
2022-11-24T05:15:00.790Z,20.18
2022-11-24T05:17:32.432Z,20.18
2022-11-24T05:19:59.312Z,20.17
2022-11-24T05:22:26.974Z,20.17
2022-11-24T05:24:53.587Z,20.19
2022-11-24T05:27:20.176Z,20.12
2022-11-24T05:29:46.763Z,20.13
2022-11-24T05:32:13.367Z,20.08
2022-11-24T05:34:39.986Z,20.09
2022-11-24T05:37:06.952Z,20.06
2022-11-24T05:39:35.019Z,20.09
2022-11-24T05:42:25.978Z,20.08
2022-11-24T05:44:53.219Z,20.08
2022-11-24T05:47:20.212Z,20.11
2022-11-24T05:49:46.948Z,20.08
2022-11-24T05:52:13.868Z,20.08
2022-11-24T05:54:40.472Z,20.08
2022-11-24T05:57:07.340Z,20.09
2022-11-24T05:59:33.943Z,20.10
2022-11-24T06:02:01.048Z,20.12
2022-11-24T06:04:28.382Z,20.10
2022-11-24T06:06:54.961Z,20.10
2022-11-24T06:09:21.569Z,20.07
2022-11-24T06:11:48.921Z,20.07
2022-11-24T06:14:15.516Z,20.05
2022-11-24T06:16:42.182Z,20.06
2022-11-24T06:19:10.920Z,20.10
2022-11-24T06:21:37.902Z,20.06
2022-11-24T06:24:05.250Z,20.05
2022-11-24T06:26:31.933Z,20.05
2022-11-24T06:28:58.562Z,20.05
2022-11-24T06:31:25.217Z,20.09
2022-11-24T06:33:52.084Z,20.08
2022-11-24T06:36:18.848Z,20.07
2022-11-24T06:38:45.475Z,20.09
2022-11-24T06:41:14.088Z,20.08
2022-11-24T06:43:40.816Z,20.10
2022-11-24T06:46:07.958Z,20.03
2022-11-24T06:48:34.586Z,20.08
2022-11-24T06:51:13.057Z,20.10
2022-11-24T06:53:40.890Z,20.11
2022-11-24T06:56:16.109Z,20.12
2022-11-24T06:58:46.087Z,20.17
2022-11-24T07:01:23.559Z,20.15
2022-11-24T07:03:51.730Z,20.25
2022-11-24T07:06:19.633Z,20.31
2022-11-24T07:08:46.778Z,20.32
2022-11-24T07:11:15.701Z,20.35
2022-11-24T07:13:46.558Z,20.37
2022-11-24T07:16:14.597Z,20.41
2022-11-24T07:18:42.236Z,20.39
2022-11-24T07:21:08.954Z,20.40
2022-11-24T07:23:35.564Z,20.38
2022-11-24T07:26:06.902Z,20.39
2022-11-24T07:28:36.856Z,20.45
2022-11-24T07:31:11.643Z,20.46
2022-11-24T07:33:38.598Z,20.45
2022-11-24T07:36:06.777Z,20.40
2022-11-24T07:38:33.881Z,20.38
2022-11-24T07:41:02.293Z,20.39
2022-11-24T07:43:31.368Z,20.37
2022-11-24T07:45:58.222Z,20.36
2022-11-24T07:48:24.840Z,20.33
2022-11-24T07:50:55.818Z,20.30
2022-11-24T07:53:23.043Z,20.28
2022-11-24T07:55:54.790Z,20.33
2022-11-24T07:58:22.119Z,20.28
2022-11-24T08:00:48.857Z,20.33
2022-11-24T08:03:15.491Z,20.28
2022-11-24T08:06:07.866Z,20.29
2022-11-24T08:08:33.182Z,20.30
2022-11-24T08:11:08.292Z,20.27
2022-11-24T08:13:35.933Z,20.16
2022-11-24T08:16:11.368Z,20.23
2022-11-24T08:18:39.001Z,20.32
2022-11-24T08:21:06.766Z,20.28
2022-11-24T08:23:33.814Z,20.29
2022-11-24T08:26:09.148Z,20.27
2022-11-24T08:28:36.722Z,20.33
2022-11-24T08:31:05.611Z,20.30
2022-11-24T08:33:32.792Z,20.30
2022-11-24T08:36:08.325Z,20.33
2022-11-24T08:38:34.945Z,20.31
2022-11-24T08:41:03.889Z,20.28
2022-11-24T08:43:30.914Z,20.32
2022-11-24T08:46:06.440Z,20.29
2022-11-24T08:48:33.826Z,20.29
2022-11-24T08:51:16.226Z,20.30
2022-11-24T08:53:43.767Z,20.29
2022-11-24T08:56:11.744Z,20.32
2022-11-24T08:58:38.704Z,20.32
2022-11-24T09:01:10.815Z,20.30
2022-11-24T09:03:38.361Z,20.33
2022-11-24T09:06:06.838Z,20.34
2022-11-24T09:08:34.119Z,20.35
2022-11-24T09:11:09.753Z,20.38
2022-11-24T09:13:37.214Z,20.37
2022-11-24T09:16:05.915Z,20.39
2022-11-24T09:18:33.218Z,20.42
2022-11-24T09:21:11.003Z,20.39
2022-11-24T09:23:38.153Z,20.38
2022-11-24T09:26:13.211Z,20.41
2022-11-24T09:28:40.363Z,20.42
2022-11-24T09:31:09.837Z,20.43
2022-11-24T09:33:37.457Z,20.37
2022-11-24T09:36:04.920Z,20.40
2022-11-24T09:38:31.570Z,20.39
2022-11-24T09:41:14.229Z,20.39
2022-11-24T09:44:08.494Z,20.37
2022-11-24T09:46:59.878Z,20.34
2022-11-24T09:49:58.843Z,20.34
2022-11-24T09:53:03.551Z,20.28
2022-11-24T09:56:06.230Z,20.26
2022-11-24T09:58:45.965Z,20.23
2022-11-24T10:01:18.526Z,20.18
2022-11-24T10:03:52.567Z,20.17
2022-11-24T10:06:23.807Z,20.14
2022-11-24T10:09:17.903Z,20.16
2022-11-24T10:11:44.410Z,20.17
2022-11-24T10:14:13.726Z,20.15
2022-11-24T10:16:59.638Z,20.21
2022-11-24T10:19:38.013Z,20.19
2022-11-24T10:22:27.957Z,20.21
2022-11-24T10:24:54.515Z,20.25
2022-11-24T10:27:33.803Z,20.25
2022-11-24T10:30:01.429Z,20.28
2022-11-24T10:32:40.290Z,20.30
2022-11-24T10:35:20.133Z,20.32
2022-11-24T10:37:55.621Z,20.32
2022-11-24T10:40:57.053Z,20.31
2022-11-24T10:43:28.575Z,20.34
2022-11-24T10:46:00.929Z,20.34
2022-11-24T10:48:30.812Z,20.34
2022-11-24T10:51:21.203Z,20.34
2022-11-24T10:53:48.720Z,20.36
2022-11-24T10:56:15.313Z,20.33
2022-11-24T10:58:41.928Z,20.39
2022-11-24T11:01:14.524Z,20.41
2022-11-24T11:03:48.695Z,20.46
2022-11-24T11:06:25.181Z,20.48
2022-11-24T11:09:06.984Z,20.51
2022-11-24T11:11:35.513Z,20.49
2022-11-24T11:14:04.981Z,20.51
2022-11-24T11:16:45.992Z,20.55
2022-11-24T11:19:54.238Z,20.59
2022-11-24T11:22:36.060Z,20.61
2022-11-24T11:25:10.727Z,20.60
2022-11-24T11:27:38.779Z,20.58
2022-11-24T11:35:51.764Z,20.58
2022-11-24T11:38:19.276Z,20.55
2022-11-24T11:40:50.426Z,20.54
2022-11-24T11:43:30.117Z,20.54
2022-11-24T11:46:04.094Z,20.50
2022-11-24T11:48:42.357Z,20.49
2022-11-24T11:51:38.662Z,20.48
2022-11-24T11:54:33.354Z,20.47
2022-11-24T11:57:11.085Z,20.46
2022-11-24T12:00:03.182Z,20.44
2022-11-24T12:03:07.340Z,20.39
2022-11-24T12:05:36.712Z,20.36
2022-11-24T12:08:55.981Z,20.35
2022-11-24T12:11:31.743Z,20.33
2022-11-24T12:14:32.144Z,20.32
2022-11-24T12:17:04.443Z,20.32
2022-11-24T12:19:58.321Z,20.35
2022-11-24T12:22:45.094Z,20.34
2022-11-24T12:25:26.263Z,20.44
2022-11-24T12:28:31.483Z,20.44
2022-11-24T12:31:11.749Z,20.36
2022-11-24T12:34:02.255Z,20.37
2022-11-24T12:36:34.428Z,20.38
2022-11-24T12:39:19.656Z,20.39
2022-11-24T12:42:04.817Z,20.35
2022-11-24T12:45:15.320Z,20.33
2022-11-24T12:48:09.368Z,20.34
2022-11-24T12:50:38.900Z,20.32
2022-11-24T12:53:28.368Z,20.34
2022-11-24T12:56:00.271Z,20.31
2022-11-24T12:58:45.809Z,20.30
2022-11-24T13:01:21.574Z,20.30
2022-11-24T13:03:48.363Z,20.31
2022-11-24T13:06:35.172Z,20.28
2022-11-24T13:09:12.535Z,20.28
2022-11-24T13:11:40.378Z,20.28
2022-11-24T13:14:11.914Z,20.26
2022-11-24T13:17:30.033Z,20.30
2022-11-24T13:19:46.082Z,20.29
2022-11-24T13:22:22.980Z,20.29
2022-11-24T13:25:12.497Z,20.28
2022-11-24T13:27:41.722Z,20.30
2022-11-24T13:30:34.192Z,20.25
2022-11-24T13:33:16.920Z,20.25
2022-11-24T13:36:02.012Z,20.24
2022-11-24T13:38:42.159Z,20.24
2022-11-24T13:41:28.248Z,20.23
2022-11-24T13:44:13.775Z,20.24
2022-11-24T13:47:06.363Z,20.25
2022-11-24T13:49:39.640Z,20.22
2022-11-24T13:52:40.428Z,20.20
2022-11-24T13:55:13.006Z,20.27
2022-11-24T13:57:42.395Z,20.24
2022-11-24T14:00:18.522Z,20.30
2022-11-24T14:02:45.621Z,20.27
2022-11-24T14:05:17.304Z,20.27
2022-11-24T14:07:46.721Z,20.29
2022-11-24T14:10:19.980Z,20.25
2022-11-24T14:12:46.616Z,20.27
2022-11-24T14:15:22.648Z,20.26
2022-11-24T14:17:49.232Z,20.24
2022-11-24T14:20:25.385Z,19.62
2022-11-24T14:22:52.423Z,19.83
2022-11-24T14:25:26.146Z,20.02
2022-11-24T14:27:52.792Z,20.07
2022-11-24T14:30:21.839Z,20.11
2022-11-24T14:33:12.659Z,20.17
2022-11-24T14:35:51.012Z,20.14
2022-11-24T14:38:17.725Z,20.17
2022-11-24T14:40:51.533Z,20.14
2022-11-24T14:43:25.969Z,20.16
2022-11-24T14:46:19.028Z,20.16
2022-11-24T14:48:54.534Z,20.14
2022-11-24T14:51:24.249Z,20.14
2022-11-24T14:53:53.586Z,20.14
2022-11-24T14:56:30.284Z,20.10
2022-11-24T14:58:58.029Z,20.11
2022-11-24T15:01:27.779Z,20.15
2022-11-24T15:04:54.473Z,20.12
2022-11-24T15:07:20.401Z,20.10
2022-11-24T15:09:58.702Z,20.11
2022-11-24T15:12:48.441Z,20.10
2022-11-24T15:15:15.156Z,20.11
2022-11-24T15:17:53.701Z,20.11
2022-11-24T15:20:24.852Z,20.10
2022-11-24T15:22:52.723Z,20.12
2022-11-24T15:25:32.472Z,20.13
2022-11-24T15:27:59.965Z,20.15
2022-11-24T15:30:27.677Z,20.14
2022-11-24T15:32:58.968Z,20.16
2022-11-24T15:35:29.115Z,20.19
2022-11-24T15:37:55.844Z,20.15
2022-11-24T15:40:22.609Z,20.14
2022-11-24T15:42:54.325Z,20.17
2022-11-24T15:45:22.726Z,20.14
2022-11-24T15:47:50.019Z,20.15
2022-11-24T15:50:17.226Z,20.19
2022-11-24T15:52:45.113Z,20.18
2022-11-24T15:55:19.937Z,20.17
2022-11-24T15:57:47.136Z,20.20
2022-11-24T16:00:19.062Z,20.19
2022-11-24T16:02:45.723Z,20.21
2022-11-24T16:05:13.659Z,20.23
2022-11-24T16:07:40.923Z,20.18
2022-11-24T16:10:18.116Z,20.18
2022-11-24T16:12:44.684Z,20.18
2022-11-24T16:15:11.250Z,20.15
2022-11-24T16:17:37.852Z,20.15
2022-11-24T16:20:05.221Z,20.16
2022-11-24T16:22:31.841Z,20.16
2022-11-24T16:24:58.447Z,20.13
2022-11-24T16:27:25.013Z,20.13
2022-11-24T16:29:51.602Z,20.15
2022-11-24T16:32:18.185Z,20.15
2022-11-24T16:34:44.774Z,20.15
2022-11-24T16:37:11.343Z,20.17
2022-11-24T16:39:37.917Z,20.15
2022-11-24T16:42:04.700Z,20.16
2022-11-24T16:44:31.302Z,20.17
2022-11-24T16:46:57.919Z,20.18
2022-11-24T16:49:24.480Z,20.18
2022-11-24T16:51:51.058Z,20.19
2022-11-24T16:54:17.825Z,20.17
2022-11-24T16:56:44.454Z,20.21
2022-11-24T16:59:11.768Z,20.18
2022-11-24T17:01:40.419Z,20.19
2022-11-24T17:04:12.392Z,20.19
2022-11-24T17:06:39.592Z,20.19
2022-11-24T17:09:06.306Z,20.17
2022-11-24T17:11:32.945Z,20.15
2022-11-24T17:13:59.593Z,20.15
2022-11-24T17:16:27.307Z,20.15
2022-11-24T17:18:54.078Z,20.16
2022-11-24T17:21:25.904Z,20.13
2022-11-24T17:23:57.311Z,20.14
2022-11-24T17:26:25.062Z,20.15
2022-11-24T17:28:51.832Z,20.12
2022-11-24T17:31:29.042Z,20.13
2022-11-24T17:33:58.014Z,20.14
2022-11-24T17:36:24.668Z,20.13
2022-11-24T17:38:51.570Z,20.10
2022-11-24T17:41:19.377Z,20.12
2022-11-24T17:43:53.330Z,20.17
2022-11-24T17:46:20.189Z,20.11
2022-11-24T17:48:47.194Z,20.10
2022-11-24T17:51:18.904Z,20.11
2022-11-24T17:53:47.754Z,20.13
2022-11-24T17:56:19.556Z,20.12
2022-11-24T17:58:46.282Z,20.13
2022-11-24T18:01:14.670Z,20.13
2022-11-24T18:03:42.078Z,20.15
2022-11-24T18:06:11.158Z,20.14
2022-11-24T18:08:39.486Z,20.14
2022-11-24T18:11:08.585Z,20.14
2022-11-24T18:13:55.610Z,20.15
2022-11-24T18:16:24.213Z,20.16
2022-11-24T18:19:07.348Z,20.18
2022-11-24T18:21:35.195Z,20.21
2022-11-24T18:24:01.899Z,20.20
2022-11-24T18:26:28.689Z,20.21
2022-11-24T18:28:55.380Z,20.23
2022-11-24T18:31:22.519Z,20.21
2022-11-24T18:33:49.177Z,20.18
2022-11-24T18:36:19.006Z,20.18
2022-11-24T18:38:46.044Z,20.17
2022-11-24T18:41:14.308Z,20.19
2022-11-24T18:43:41.439Z,20.17
2022-11-24T18:46:14.894Z,20.16
2022-11-24T18:48:51.951Z,20.15
2022-11-24T18:51:18.777Z,20.14
2022-11-24T18:53:46.623Z,20.15
2022-11-24T18:56:17.377Z,20.16
2022-11-24T18:58:44.920Z,20.12
2022-11-24T19:01:13.009Z,20.13
2022-11-24T19:03:47.832Z,20.11
2022-11-24T19:06:18.885Z,20.13
2022-11-24T19:08:46.212Z,20.11
2022-11-24T19:11:24.297Z,20.13
2022-11-24T19:13:51.368Z,20.07
2022-11-24T19:16:19.557Z,20.10
2022-11-24T19:18:52.000Z,20.11
2022-11-24T19:21:20.748Z,20.14
2022-11-24T19:23:47.406Z,20.12
2022-11-24T19:26:14.160Z,20.13
2022-11-24T19:28:40.782Z,20.13
2022-11-24T19:31:09.085Z,20.14
2022-11-24T19:33:36.021Z,20.15
2022-11-24T19:36:05.681Z,20.14
2022-11-24T19:38:33.503Z,20.13
2022-11-24T19:41:11.409Z,20.14
2022-11-24T19:43:39.218Z,20.16
2022-11-24T19:46:11.008Z,20.17
2022-11-24T19:48:40.394Z,20.13
2022-11-24T19:51:10.067Z,20.14
2022-11-24T19:53:36.739Z,20.15
2022-11-24T19:56:08.221Z,20.15
2022-11-24T19:58:35.780Z,20.11
2022-11-24T20:01:13.012Z,20.13
2022-11-24T20:03:41.311Z,20.13
2022-11-24T20:06:10.603Z,20.16
2022-11-24T20:08:38.881Z,20.15
2022-11-24T20:11:11.355Z,20.20
2022-11-24T20:13:40.151Z,20.20
2022-11-24T20:16:10.171Z,20.18
2022-11-24T20:18:41.994Z,20.19
2022-11-24T20:21:11.515Z,20.19
2022-11-24T20:23:38.601Z,20.24
2022-11-24T20:26:14.438Z,20.18
2022-11-24T20:28:41.707Z,20.17
2022-11-24T20:31:14.146Z,20.15
2022-11-24T20:33:41.515Z,20.08
2022-11-24T20:36:14.412Z,19.99
2022-11-24T20:38:42.325Z,20.02
2022-11-24T20:41:13.405Z,20.35
2022-11-24T20:43:40.920Z,20.61
2022-11-24T20:46:10.529Z,20.81
2022-11-24T20:48:37.846Z,21.00
2022-11-24T20:51:25.830Z,21.15
2022-11-24T20:53:55.233Z,21.26
2022-11-24T20:56:24.465Z,21.37
2022-11-24T20:58:52.000Z,21.42
2022-11-24T21:01:21.835Z,21.53
2022-11-24T21:03:53.266Z,21.64
2022-11-24T21:06:19.922Z,21.70
2022-11-24T21:08:46.501Z,21.75
2022-11-24T21:11:14.406Z,21.79
2022-11-24T21:13:43.746Z,21.82
2022-11-24T21:16:16.448Z,21.79
2022-11-24T21:18:44.724Z,21.69
2022-11-24T21:21:12.604Z,21.73
2022-11-24T21:23:39.615Z,21.61
2022-11-24T21:26:13.124Z,21.52
2022-11-24T21:28:44.485Z,21.50
2022-11-24T21:31:16.991Z,21.57
2022-11-24T21:33:46.375Z,21.54
2022-11-24T21:36:15.483Z,21.58
2022-11-24T21:38:42.846Z,21.52
2022-11-24T21:41:11.303Z,21.63
2022-11-24T21:43:38.623Z,21.75
2022-11-24T21:46:07.809Z,21.81
2022-11-24T21:48:36.373Z,21.82
2022-11-24T21:51:05.589Z,21.90
2022-11-24T21:53:34.673Z,21.92
2022-11-24T21:56:03.132Z,21.99
2022-11-24T21:58:29.853Z,21.98
2022-11-24T22:01:02.922Z,22.01
2022-11-24T22:03:29.640Z,21.95
2022-11-24T22:05:57.941Z,21.97
2022-11-24T22:08:25.608Z,21.94
2022-11-24T22:10:52.394Z,21.94
2022-11-24T22:13:19.426Z,21.93
2022-11-24T22:15:46.137Z,21.98
2022-11-24T22:18:12.698Z,21.99
2022-11-24T22:20:39.465Z,22.00
2022-11-24T22:23:06.054Z,22.18
2022-11-24T22:25:33.847Z,22.24
2022-11-24T22:28:00.424Z,22.10
2022-11-24T22:30:26.986Z,21.93
2022-11-24T22:32:54.024Z,21.78
2022-11-24T22:35:20.937Z,21.70
2022-11-24T22:37:47.508Z,21.59
2022-11-24T22:40:14.140Z,21.50
2022-11-24T22:42:40.709Z,21.41
2022-11-24T22:45:07.992Z,21.35
2022-11-24T22:47:34.599Z,21.27
2022-11-24T22:50:01.130Z,21.19
2022-11-24T22:52:27.689Z,21.14
2022-11-24T22:54:54.249Z,21.08
2022-11-24T22:57:20.791Z,21.06
2022-11-24T22:59:47.377Z,21.02
2022-11-24T23:02:13.949Z,20.97
2022-11-24T23:04:40.489Z,20.94
2022-11-24T23:07:07.039Z,20.91
2022-11-24T23:09:33.928Z,20.89
2022-11-24T23:12:00.491Z,20.90
2022-11-24T23:14:28.779Z,20.87
2022-11-24T23:16:55.422Z,20.87
2022-11-24T23:19:22.113Z,20.88
2022-11-24T23:21:48.737Z,20.84
2022-11-24T23:24:15.310Z,20.86
2022-11-24T23:26:41.956Z,20.85
2022-11-24T23:29:10.557Z,20.82
2022-11-24T23:31:39.844Z,20.83
2022-11-24T23:34:06.830Z,20.82
2022-11-24T23:36:33.533Z,20.79
2022-11-24T23:39:05.173Z,20.80
2022-11-24T23:41:32.005Z,20.73
2022-11-24T23:43:58.849Z,20.77
2022-11-24T23:46:26.875Z,20.72
2022-11-24T23:48:54.714Z,20.72
2022-11-24T23:51:25.305Z,20.71
2022-11-24T23:53:52.546Z,20.71
2022-11-24T23:56:21.899Z,20.71
2022-11-24T23:58:49.016Z,20.70
